Cohagen, MT

10:08 AM MDT on May 05, 2015 (GMT -0600)
Jordan | | Change Station
CLOSE
Current Station
Airport
Location: Jordan,
Elevation: 2661 ft
Nearby Weather Stations
Active Advisory: Lake Wind Advisory

Elev 2661 ft 47.33 °N, 106.95 °W | Updated 20 minutes ago

Clear
Clear
64 °F
Feels Like 64 °F
N
10
Wind Variable Wind from SE
Gusts mph

Today
High -- | Low -- °F
--% Chance of Precip.
Yesterday
High -- | Low -- °F
Precip. -- in
5:44 AM 8:22 PM
Full, 98% visible
Pressure 29.78 in
Visibility -9999.0 miles
Clouds
Dew Point 41 °F
Humidity 43%
Rainfall 0.00 in
Snow Depth Not available.
UV Not available.
Pollen 10.30 out of 12
Air Quality Not available.
Flu Activity Local Activity
METAR KJDN 051548Z AUTO 14009KT 110V170 18/05 A2979 RMK AO1 SLP084 T01780050

More Conditions Fewer Conditions

Pressure 29.78 in
Visibility -9999.0 miles
Clouds
Dew Point 41 °F
Humidity 43%
Rainfall 0.00 in
Snow Depth Not available.
UV Not available.
Pollen 10.30 out of 12
Air Quality Not available.
Flu Activity Local Activity
METAR KJDN 051548Z AUTO 14009KT 110V170 18/05 A2979 RMK AO1 SLP084 T01780050

More Conditions Fewer Conditions

10-Day Weather Forecast

Almanac

Astronomy

May. 05, 2015 Rise Set
Actual Time
Civil Twilight
Nautical Twilight
Astronomical Twilight
Moon
Length of Visible Light
Length of Day
Tomorrow will be .
, % of the Moon is Illuminated

Today's Extremes

State Highs State Lows

Community

WunderPhotos

Upload Photos

1,818,938 photos uploaded!

WunderBlogs® & News

Nearby

Air Quality

  Air Quality AQ Index Pollutant
Not available.

Snow Depth

Station Depth Elevation

Earthquake Activity

City Distance Mag. Time & Date
Minimum magnitude displayed is 2.5.

Coastal Water Temperatures

Place Temperature

Stations

Nearby Weather Stations

Station Location Temp. Windchill Dew Point Humidity Wind Precip. Elev Updated Type
                   
Lake Wind Advisory
Statement as of 3:11 AM MDT on May 05, 2015

... Lake Wind Advisory in effect until 9 PM MDT this evening for
Fort Peck Lake...

The National Weather Service in Glasgow has issued a lake Wind
Advisory for Fort Peck Lake... which is in effect until 9 PM MDT
this evening.

* Timing... this morning through this evening.

* Winds... southeast 15 to 25 mph.

* Impacts... the gusty southeast winds will make boating on Fort
Peck Lake rough and hazardous today. High waves are possible
which may tip or swamp smaller craft.

Precautionary/preparedness actions...

Boaters should use extreme caution if venturing onto Fort Peck
Lake. These winds will make open waters of the lake rough and
hazardous... and may result in high waves which may tip or swamp
smaller craft. For your personal safety... avoid the open waters.
Stay close to shore or around protected areas.